.
WxDataArchive / Data Records for 2011-10-14
2011-10-13 October 2011 2011-10-15

Data Records for Friday, 14 October 2011

Time	Temp	Chill	HIndex	Humid	Dewpt	 Wind 	HiWind	WindDir	Rain 	Barom 
-----	----	-----	------	-----	-----	------	------	-------	-----	----- 
00:00	56.6	56.6	56.6	93	54.6	3	5	270	0.00	29.441 
00:05	56.5	56.5	56.5	93	54.5	1	4	315	0.00	29.441 
00:10	56.3	56.3	56.3	93	54.3	1	4	292	0.00	29.441 
00:15	56.2	56.2	56.2	93	54.2	1	4	292	0.00	29.440 
00:20	56.2	56.2	56.2	93	54.2	1	3	248	0.00	29.440 
00:25	56.0	56.0	56.0	93	54.0	0	2	248	0.00	29.440 
00:30	56.0	56.0	56.0	93	54.0	1	3	248	0.00	29.435 
00:35	56.0	56.0	56.0	93	54.0	1	2	315	0.00	29.435 
00:40	56.0	56.0	56.0	93	54.0	1	3	315	0.00	29.435 
00:45	55.9	55.9	55.9	93	53.9	1	3	315	0.00	29.441 
00:50	55.9	55.9	55.9	93	53.9	1	4	315	0.00	29.441 
00:55	55.7	55.7	55.7	92	53.4	1	4	292	0.00	29.441 
01:00	55.7	55.7	55.7	92	53.4	1	4	292	0.00	29.438 
01:05	55.7	55.7	55.7	92	53.4	2	5	292	0.00	29.438 
01:10	55.7	55.7	55.7	92	53.4	2	5	248	0.00	29.438 
01:15	55.7	55.7	55.7	92	53.4	1	3	270	0.00	29.438 
01:20	55.7	55.7	55.7	92	53.4	1	3	270	0.00	29.438 
01:25	55.7	55.7	55.7	92	53.4	1	2	270	0.00	29.438 
01:30	55.6	55.6	55.6	92	53.3	1	4	270	0.00	29.440 
01:35	55.6	55.6	55.6	92	53.3	1	4	270	0.00	29.440 
01:40	55.4	55.4	55.4	92	53.1	0	2	270	0.00	29.440 
01:45	55.4	55.4	55.4	92	53.1	1	4	270	0.00	29.441 
01:50	55.3	55.3	55.3	92	53.0	1	3	270	0.00	29.441 
01:55	55.3	55.3	55.3	92	53.0	0	3	270	0.00	29.441 
02:00	55.3	55.3	55.3	92	53.0	1	3	270	0.00	29.444 
02:05	55.3	55.3	55.3	92	53.0	1	3	270	0.00	29.444 
02:10	55.3	55.3	55.3	92	53.0	2	4	270	0.00	29.444 
02:15	55.3	55.3	55.3	92	53.0	1	3	270	0.00	29.444 
02:20	55.4	55.4	55.4	92	53.1	1	4	270	0.00	29.444 
02:25	55.4	55.4	55.4	92	53.1	1	4	270	0.00	29.444 
02:30	55.4	55.4	55.4	92	53.1	1	4	270	0.00	29.445 
02:35	55.6	55.6	55.6	92	53.3	1	3	270	0.00	29.445 
02:40	55.6	55.6	55.6	92	53.3	1	3	270	0.00	29.445 
02:45	55.6	55.6	55.6	92	53.3	1	4	270	0.00	29.447 
02:50	55.6	55.6	55.6	92	53.3	0	1	270	0.00	29.447 
02:55	55.6	55.6	55.6	92	53.3	0	3	270	0.00	29.447 
03:00	55.6	55.6	55.6	92	53.3	1	4	270	0.00	29.441 
03:05	55.6	55.6	55.6	92	53.3	1	3	270	0.00	29.441 
03:10	55.6	55.6	55.6	92	53.3	0	2	270	0.00	29.441 
03:15	55.6	55.6	55.6	92	53.3	0	2	270	0.00	29.440 
03:20	55.6	55.6	55.6	92	53.3	1	4	270	0.00	29.440 
03:25	55.4	55.4	55.4	92	53.1	2	4	270	0.00	29.440 
03:30	55.4	55.4	55.4	91	52.8	3	5	270	0.00	29.439 
03:35	55.4	55.4	55.4	90	52.5	2	5	270	0.00	29.439 
03:40	55.4	55.4	55.4	89	52.2	3	7	270	0.00	29.439 
03:45	55.3	55.3	55.3	87	51.5	3	7	270	0.00	29.443 
03:50	55.3	55.3	55.3	85	50.9	3	7	292	0.00	29.443 
03:55	55.4	55.4	55.4	84	50.6	3	6	270	0.00	29.443 
04:00	55.4	55.4	55.4	85	51.0	2	6	270	0.00	29.443 
04:05	55.6	55.6	55.6	85	51.2	3	5	292	0.00	29.443 
04:10	55.6	55.6	55.6	84	50.8	3	6	270	0.00	29.443 
04:15	55.6	55.6	55.6	84	50.8	2	5	315	0.00	29.439 
04:20	55.6	55.6	55.6	85	51.2	3	7	270	0.00	29.439 
04:25	55.4	55.4	55.4	85	51.0	3	5	270	0.00	29.439 
04:30	55.3	55.3	55.3	85	50.9	2	6	270	0.00	29.442 
04:35	55.1	55.1	55.1	84	50.4	3	5	270	0.00	29.442 
04:40	55.0	55.0	55.0	84	50.3	2	6	270	0.00	29.442 
04:45	54.8	54.8	54.8	84	50.1	3	5	270	0.00	29.445 
04:50	54.7	54.7	54.7	84	50.0	2	5	270	0.00	29.445 
04:55	54.5	54.5	54.5	84	49.8	3	7	270	0.00	29.445 
05:00	54.4	54.4	54.4	84	49.7	2	5	270	0.00	29.448 
05:05	54.2	54.2	54.2	85	49.8	2	5	270	0.00	29.448 
05:10	54.2	54.2	54.2	85	49.8	3	7	270	0.00	29.448 
05:15	54.1	54.1	54.1	85	49.7	2	5	270	0.00	29.455 
05:20	53.9	53.9	53.9	85	49.5	3	6	270	0.00	29.455 
05:25	53.8	53.8	53.8	86	49.7	2	5	270	0.00	29.455 
05:30	53.8	53.8	53.8	86	49.7	2	5	270	0.00	29.457 
05:35	53.6	53.6	53.6	87	49.8	3	6	270	0.00	29.457 
05:40	53.6	53.6	53.6	87	49.8	2	5	270	0.00	29.457 
05:45	53.6	53.6	53.6	87	49.8	2	5	270	0.00	29.461 
05:50	53.5	53.5	53.5	87	49.7	3	7	270	0.00	29.461 
05:55	53.5	53.5	53.5	87	49.7	2	4	248	0.00	29.461 
06:00	53.5	53.5	53.5	87	49.7	2	5	292	0.00	29.465 
06:05	53.3	53.3	53.3	86	49.2	2	6	270	0.00	29.465 
06:10	53.3	53.3	53.3	86	49.2	1	4	248	0.00	29.465 
06:15	53.2	53.2	53.2	86	49.1	2	5	270	0.00	29.469 
06:20	53.1	53.1	53.1	86	49.0	2	5	270	0.00	29.469 
06:25	52.9	52.9	52.9	85	48.5	2	6	270	0.00	29.469 
06:30	52.9	52.9	52.9	85	48.5	2	5	270	0.00	29.473 
06:35	52.8	52.8	52.8	85	48.4	3	6	270	0.00	29.473 
06:40	52.8	52.8	52.8	85	48.4	2	6	270	0.00	29.473 
06:45	52.6	52.6	52.6	85	48.2	2	7	270	0.00	29.477 
06:50	52.6	52.6	52.6	85	48.2	1	3	248	0.00	29.477 
06:55	52.5	52.5	52.5	85	48.1	1	6	248	0.00	29.477 
07:00	52.3	52.3	52.3	85	47.9	2	6	270	0.00	29.481 
07:05	52.2	52.2	52.2	85	47.8	1	4	270	0.00	29.481 
07:10	52.2	52.2	52.2	85	47.8	2	6	270	0.00	29.481 
07:15	52.0	52.0	52.0	85	47.6	1	5	270	0.00	29.488 
07:20	51.9	51.9	51.9	85	47.5	1	5	270	0.00	29.488 
07:25	51.7	51.7	51.7	85	47.3	2	4	270	0.00	29.488 
07:30	51.7	51.7	51.7	85	47.3	2	6	270	0.00	29.490 
07:35	51.6	51.6	51.6	86	47.5	1	5	270	0.00	29.490 
07:40	51.6	51.6	51.6	86	47.5	1	5	270	0.00	29.490 
07:45	51.4	51.4	51.4	86	47.4	1	5	270	0.00	29.493 
07:50	51.4	51.4	51.4	86	47.4	1	4	248	0.00	29.493 
07:55	51.3	51.3	51.3	86	47.3	1	5	248	0.00	29.493 
08:00	51.3	51.3	51.3	86	47.3	2	6	270	0.00	29.496 
08:05	51.3	51.3	51.3	86	47.3	1	4	248	0.00	29.496 
08:10	51.1	51.1	51.1	86	47.1	2	4	270	0.00	29.496 
08:15	51.1	51.1	51.1	86	47.1	2	5	270	0.00	29.501 
08:20	51.0	51.0	51.0	86	47.0	1	5	270	0.00	29.501 
08:25	51.0	51.0	51.0	86	47.0	2	4	248	0.00	29.501 
08:30	51.0	51.0	51.0	86	47.0	2	5	270	0.00	29.505 
08:35	51.0	51.0	51.0	86	47.0	1	4	270	0.00	29.505 
08:40	50.8	50.8	50.8	86	46.8	1	4	270	0.00	29.505 
08:45	50.8	50.8	50.8	86	46.8	1	4	270	0.00	29.509 
08:50	50.7	50.7	50.7	86	46.7	1	4	270	0.00	29.509 
08:55	50.7	50.7	50.7	86	46.7	2	4	292	0.00	29.509 
09:00	50.8	50.8	50.8	85	46.5	2	6	270	0.00	29.511 
09:05	50.8	50.8	50.8	84	46.1	3	6	270	0.00	29.511 
09:10	50.8	50.8	50.8	84	46.1	2	5	270	0.00	29.511 
09:15	51.0	51.0	51.0	84	46.3	3	6	270	0.00	29.521 
09:20	50.8	50.8	50.8	83	45.8	3	5	270	0.00	29.521 
09:25	50.8	50.8	50.8	83	45.8	2	5	270	0.00	29.521 
09:30	50.8	50.8	50.8	82	45.5	3	7	270	0.00	29.523 
09:35	51.0	51.0	51.0	82	45.7	2	5	270	0.00	29.523 
09:40	51.1	51.1	51.1	81	45.5	2	5	270	0.00	29.523 
09:45	51.3	51.3	51.3	80	45.3	3	5	270	0.00	29.524 
09:50	51.4	51.4	51.4	79	45.1	3	7	270	0.00	29.524 
09:55	51.7	51.7	51.7	79	45.4	3	7	270	0.00	29.524 
10:00	51.9	51.9	51.9	77	44.9	3	7	270	0.00	29.526 
10:05	52.2	52.2	52.2	76	44.9	4	7	270	0.00	29.526 
10:10	52.5	52.5	52.5	76	45.2	4	7	270	0.00	29.526 
10:15	52.8	52.8	52.8	75	45.1	4	7	270	0.00	29.528 
10:20	52.9	52.9	52.9	73	44.5	3	7	270	0.00	29.528 
10:25	53.1	53.1	53.1	73	44.7	5	11	270	0.00	29.528 
10:30	53.2	53.2	53.2	73	44.8	5	9	270	0.00	29.531 
10:35	53.5	53.5	53.5	73	45.1	4	10	270	0.00	29.531 
10:40	53.8	53.8	53.8	72	45.0	3	10	270	0.00	29.531 
10:45	54.1	54.1	54.1	70	44.5	4	9	270	0.00	29.526 
10:50	54.4	54.4	54.4	69	44.4	3	7	270	0.00	29.526 
10:55	54.7	54.7	54.7	68	44.3	5	9	270	0.00	29.526 
11:00	54.8	54.8	54.8	68	44.4	4	7	270	0.00	29.532 
11:05	54.8	54.8	54.8	66	43.7	4	10	270	0.00	29.532 
11:10	55.1	55.1	55.1	66	43.9	4	10	270	0.00	29.532 
11:15	55.4	55.4	55.4	65	43.8	4	9	270	0.00	29.535 
11:20	55.4	55.4	55.4	62	42.6	5	11	270	0.00	29.535 
11:25	55.4	55.4	55.4	62	42.6	4	9	270	0.00	29.535 
11:30	55.1	55.1	55.1	62	42.3	4	10	270	0.00	29.539 
11:35	54.8	54.8	54.8	62	42.0	6	13	270	0.00	29.539 
11:40	55.0	55.0	55.0	61	41.8	5	9	270	0.00	29.539 
11:45	55.3	55.3	55.3	60	41.7	5	10	270	0.00	29.542 
11:50	55.9	55.9	55.9	60	42.2	5	11	270	0.00	29.542 
11:55	56.5	56.5	56.5	59	42.3	4	8	270	0.00	29.542 
12:00	56.6	56.6	56.6	58	42.0	4	9	270	0.00	29.538 
12:05	56.9	56.9	56.9	56	41.4	4	9	270	0.00	29.538 
12:10	56.7	56.7	56.7	55	40.7	5	10	270	0.00	29.538 
12:15	56.9	56.9	56.9	54	40.4	6	11	270	0.00	29.544 
12:20	56.9	56.9	56.9	55	40.9	5	10	270	0.00	29.544 
12:25	57.0	57.0	57.0	56	41.5	5	9	270	0.00	29.544 
12:30	57.5	57.5	57.5	54	41.0	4	9	292	0.00	29.543 
12:35	58.1	58.1	58.1	53	41.1	4	6	270	0.00	29.543 
12:40	58.3	58.3	58.3	53	41.2	4	9	270	0.00	29.543 
12:45	58.4	58.4	58.4	53	41.3	4	10	270	0.00	29.545 
12:50	58.4	58.4	58.4	51	40.3	5	10	270	0.00	29.545 
12:55	58.4	58.4	58.4	51	40.3	5	10	270	0.00	29.545 
13:00	58.3	58.3	58.3	49	39.2	6	12	270	0.00	29.551 
13:05	58.3	58.3	58.3	51	40.3	5	11	270	0.00	29.551 
13:10	58.6	58.6	58.6	50	40.0	5	11	270	0.00	29.551 
13:15	58.7	58.7	58.7	50	40.1	4	7	270	0.00	29.549 
13:20	59.3	59.3	59.3	51	41.2	4	7	270	0.00	29.549 
13:25	59.2	59.2	59.2	48	39.5	5	10	270	0.00	29.549 
13:30	59.2	59.2	59.2	51	41.1	4	9	270	0.00	29.544 
13:35	59.5	59.5	59.5	48	39.8	5	11	270	0.00	29.544 
13:40	59.6	59.6	59.6	47	39.3	5	12	270	0.00	29.544 
13:45	59.5	59.5	59.5	49	40.3	5	12	270	0.00	29.546 
13:50	59.9	59.9	59.9	48	40.2	3	6	292	0.00	29.546 
13:55	59.9	59.9	59.9	45	38.5	5	10	270	0.00	29.546 
14:00	59.3	59.3	59.3	46	38.5	6	11	270	0.00	29.548 
14:05	58.9	58.9	58.9	46	38.2	6	13	270	0.00	29.548 
14:10	59.2	59.2	59.2	49	40.0	4	9	270	0.00	29.548 
14:15	59.3	59.3	59.3	46	38.5	4	9	270	0.00	29.543 
14:20	59.8	59.8	59.8	45	38.4	4	11	270	0.00	29.543 
14:25	59.5	59.5	59.5	43	37.0	5	9	270	0.00	29.543 
14:30	59.5	59.5	59.5	45	38.1	4	10	270	0.00	29.547 
14:35	59.8	59.8	59.8	47	39.5	4	11	270	0.00	29.547 
14:40	59.6	59.6	59.6	42	36.5	6	15	270	0.00	29.547 
14:45	59.3	59.3	59.3	43	36.8	5	11	270	0.00	29.551 
14:50	59.3	59.3	59.3	44	37.4	4	7	270	0.00	29.551 
14:55	58.9	58.9	58.9	44	37.0	4	11	270	0.00	29.551 
15:00	58.9	58.9	58.9	44	37.0	5	11	270	0.00	29.552 
15:05	59.3	59.3	59.3	43	36.8	4	12	270	0.00	29.552 
15:10	59.3	59.3	59.3	42	36.2	5	10	270	0.00	29.552 
15:15	59.5	59.5	59.5	39	34.5	5	7	270	0.00	29.554 
15:20	59.8	59.8	59.8	41	36.1	3	7	270	0.00	29.554 
15:25	60.4	60.4	60.4	39	35.3	5	10	270	0.00	29.554 
15:30	60.5	60.5	60.5	39	35.4	5	10	270	0.00	29.553 
15:35	60.7	60.7	60.7	40	36.2	4	10	270	0.00	29.553 
15:40	60.7	60.7	60.7	39	35.6	4	7	270	0.00	29.553 
15:45	60.9	60.9	60.9	39	35.8	4	11	270	0.00	29.557 
15:50	60.7	60.7	60.7	38	34.9	4	10	270	0.00	29.557 
15:55	60.7	60.7	60.7	38	34.9	5	11	270	0.00	29.557 
16:00	60.2	60.2	60.2	39	35.2	4	10	270	0.00	29.562 
16:05	59.6	59.6	59.6	39	34.6	4	10	270	0.00	29.562 
16:10	59.3	59.3	59.3	40	35.0	4	9	292	0.00	29.562 
16:15	59.2	59.2	59.2	42	36.1	3	9	270	0.00	29.565 
16:20	59.0	59.0	59.0	42	35.9	4	9	292	0.00	29.565 
16:25	59.5	59.5	59.5	43	37.0	4	7	270	0.00	29.565 
16:30	60.1	60.1	60.1	41	36.3	4	10	270	0.00	29.560 
16:35	60.1	60.1	60.1	40	35.7	5	10	270	0.00	29.560 
16:40	59.8	59.8	59.8	42	36.7	4	7	270	0.00	29.560 
16:45	59.9	59.9	59.9	42	36.8	5	11	270	0.00	29.561 
16:50	60.4	60.4	60.4	42	37.2	5	12	270	0.00	29.561 
16:55	60.1	60.1	60.1	42	36.9	4	9	270	0.00	29.561 
17:00	59.9	59.9	59.9	43	37.3	4	9	270	0.00	29.567 
17:05	59.9	59.9	59.9	43	37.3	4	8	270	0.00	29.567 
17:10	60.1	60.1	60.1	43	37.5	4	11	270	0.00	29.567 
17:15	60.2	60.2	60.2	43	37.6	5	11	270	0.00	29.569 
17:20	60.1	60.1	60.1	43	37.5	4	9	270	0.00	29.569 
17:25	59.8	59.8	59.8	43	37.3	4	8	270	0.00	29.569 
17:30	59.8	59.8	59.8	44	37.8	4	9	270	0.00	29.569 
17:35	59.8	59.8	59.8	44	37.8	3	7	270	0.00	29.569 
17:40	59.9	59.9	59.9	45	38.5	3	6	270	0.00	29.569 
17:45	60.1	60.1	60.1	45	38.7	3	8	270	0.00	29.575 
17:50	59.9	59.9	59.9	46	39.1	4	9	270	0.00	29.575 
17:55	59.9	59.9	59.9	46	39.1	4	10	270	0.00	29.575 
18:00	59.8	59.8	59.8	46	39.0	3	7	270	0.00	29.576 
18:05	59.6	59.6	59.6	47	39.3	2	5	270	0.00	29.576 
18:10	59.5	59.5	59.5	48	39.8	3	7	270	0.00	29.576 
18:15	59.3	59.3	59.3	48	39.6	3	7	270	0.00	29.584 
18:20	59.2	59.2	59.2	49	40.0	2	7	270	0.00	29.584 
18:25	59.2	59.2	59.2	48	39.5	3	6	270	0.00	29.584 
18:30	59.2	59.2	59.2	49	40.0	3	6	270	0.00	29.586 
18:35	59.0	59.0	59.0	50	40.4	1	3	270	0.00	29.586 
18:40	59.0	59.0	59.0	50	40.4	2	6	270	0.00	29.586 
18:45	59.0	59.0	59.0	50	40.4	3	7	270	0.00	29.588 
18:50	59.0	59.0	59.0	50	40.4	4	8	270	0.00	29.588 
18:55	58.7	58.7	58.7	50	40.1	2	5	270	0.00	29.588 
19:00	58.6	58.6	58.6	50	40.0	3	6	270	0.00	29.588 
19:05	58.3	58.3	58.3	51	40.3	2	4	270	0.00	29.588 
19:10	58.3	58.3	58.3	51	40.3	2	6	270	0.00	29.588 
19:15	58.1	58.1	58.1	51	40.1	3	7	270	0.00	29.590 
19:20	58.1	58.1	58.1	51	40.1	3	6	270	0.00	29.590 
19:25	58.1	58.1	58.1	52	40.6	2	5	270	0.00	29.590 
19:30	58.0	58.0	58.0	52	40.5	2	4	270	0.00	29.597 
19:35	57.8	57.8	57.8	54	41.3	1	5	248	0.00	29.597 
19:40	57.6	57.6	57.6	54	41.1	2	6	270	0.00	29.597 
19:45	57.5	57.5	57.5	54	41.0	2	5	248	0.00	29.604 
19:50	57.3	57.3	57.3	54	40.8	2	6	270	0.00	29.604 
19:55	57.2	57.2	57.2	55	41.2	2	5	248	0.00	29.604 
20:00	57.0	57.0	57.0	56	41.5	1	5	248	0.00	29.607 
20:05	56.7	56.7	56.7	56	41.2	1	4	248	0.00	29.607 
20:10	56.7	56.7	56.7	56	41.2	2	6	248	0.00	29.607 
20:15	56.6	56.6	56.6	57	41.5	2	4	248	0.00	29.609 
20:20	56.5	56.5	56.5	57	41.5	1	5	248	0.00	29.609 
20:25	56.3	56.3	56.3	57	41.3	2	5	270	0.00	29.609 
20:30	56.0	56.0	56.0	58	41.4	1	5	270	0.00	29.619 
20:35	55.9	55.9	55.9	58	41.3	2	5	292	0.00	29.619 
20:40	55.7	55.7	55.7	58	41.2	2	5	270	0.00	29.619 
20:45	55.6	55.6	55.6	59	41.5	1	5	292	0.00	29.623 
20:50	55.4	55.4	55.4	59	41.3	1	5	292	0.00	29.623 
20:55	55.1	55.1	55.1	60	41.5	1	3	270	0.00	29.623 
21:00	55.0	55.0	55.0	61	41.8	1	4	292	0.00	29.623 
21:05	54.7	54.7	54.7	62	41.9	1	3	270	0.00	29.623 
21:10	54.5	54.5	54.5	62	41.7	1	3	270	0.00	29.623 
21:15	54.4	54.4	54.4	62	41.7	1	4	270	0.00	29.623 
21:20	54.2	54.2	54.2	62	41.5	1	4	270	0.00	29.623 
21:25	54.1	54.1	54.1	61	41.0	2	5	270	0.00	29.623 
21:30	54.1	54.1	54.1	60	40.5	2	5	270	0.00	29.623 
21:35	54.4	54.4	54.4	58	39.9	3	9	270	0.00	29.623 
21:40	54.4	54.4	54.4	58	39.9	2	6	270	0.00	29.623 
21:45	54.4	54.4	54.4	58	39.9	2	6	270	0.00	29.618 
21:50	54.4	54.4	54.4	58	39.9	3	10	270	0.00	29.618 
21:55	54.4	54.4	54.4	57	39.5	3	8	270	0.00	29.618 
22:00	54.4	54.4	54.4	57	39.5	2	5	270	0.00	29.622 
22:05	54.2	54.2	54.2	58	39.7	2	7	270	0.00	29.622 
22:10	54.2	54.2	54.2	58	39.7	3	6	270	0.00	29.622 
22:15	54.1	54.1	54.1	58	39.7	3	6	270	0.00	29.619 
22:20	54.1	54.1	54.1	58	39.7	2	6	270	0.00	29.619 
22:25	54.1	54.1	54.1	58	39.7	3	6	270	0.00	29.619 
22:30	53.9	53.9	53.9	58	39.5	1	7	270	0.00	29.616 
22:35	53.8	53.8	53.8	58	39.4	1	9	270	0.00	29.616 
22:40	53.8	53.8	53.8	59	39.8	2	7	270	0.00	29.616 
22:45	53.6	53.6	53.6	59	39.6	3	7	248	0.00	29.619 
22:50	53.6	53.6	53.6	59	39.6	3	6	270	0.00	29.619 
22:55	53.6	53.6	53.6	60	40.1	2	9	248	0.00	29.619 
23:00	53.6	53.6	53.6	60	40.1	3	6	270	0.00	29.617 
23:05	53.5	53.5	53.5	60	40.0	2	6	270	0.00	29.617 
23:10	53.3	53.3	53.3	61	40.2	2	6	270	0.00	29.617 
23:15	53.3	53.3	53.3	61	40.2	2	5	270	0.00	29.618 
23:20	53.2	53.2	53.2	61	40.1	2	6	248	0.00	29.618 
23:25	53.2	53.2	53.2	62	40.5	3	7	270	0.00	29.618 
23:30	53.2	53.2	53.2	62	40.5	3	7	270	0.00	29.618 
23:35	53.2	53.2	53.2	62	40.5	3	7	270	0.00	29.618 
23:40	53.2	53.2	53.2	62	40.5	3	6	270	0.00	29.618 
23:45	53.2	53.2	53.2	62	40.5	3	6	270	0.00	29.621 
23:50	53.2	53.2	53.2	62	40.5	3	7	270	0.00	29.621 
23:55	53.2	53.2	53.2	62	40.5	2	6	270	0.00	29.621 

CoCoRaHS
IN-AL-39
A2 Web Hosting
Creative Commons License
GoDaddy
search engine by freefind advanced

loaded 2018-11-17 18:34:11 • last modified 2010-11-18 10:43:29
Privacy PolicyDisclaimer
• wx.awcolley.com is powered by PmWiki v.2002016 •
• all content (unless otherwise noted) © 2018 A W Colley